Twin Oaks, Pennsylvania
Current Conditions -  °F | °C
As of 5:54 AM on Monday 20 Oct 2014 (Local Time) from KPHL Reporting Station
Scattered Clouds Scattered Clouds  
Wind Chill: 39°   Ceiling: Unl
Heat Index: 42°   Visibility: 10mi
Dew Point: 32°   Wind: 5mph
Humidity: 67%   Direction: 180°S
Pressure: 30.13"   Gusts: NA
Location:  39.8645°N, 75.4349°W
Report Text: KPHL 200954Z 18004KT 10SM FEW160 SCT250 06/00 A3013 RMK AO2 SLP200 T00560000 $
Loading
Personal Weather Stations






























Interactive Weather Map
Tropical Storm Tracking
New forecast layout! Learn more

10-Day Weather Forecast

Advertisements
Track Severe Weather on mobile